createdAt,value
2019-06-26T00:02:13.805Z,96027.06
2019-06-26T00:04:41.163Z,96039.38
2019-06-26T00:07:08.571Z,96031.06
2019-06-26T00:09:35.930Z,96035.98
2019-06-26T00:12:03.309Z,96036.59
2019-06-26T00:14:30.715Z,96035.69
2019-06-26T00:16:58.056Z,96031.64
2019-06-26T00:19:25.440Z,96030.24
2019-06-26T00:21:52.829Z,96029.44
2019-06-26T00:24:20.207Z,96038.93
2019-06-26T00:26:47.571Z,96039.62
2019-06-26T00:29:15.026Z,96043.25
2019-06-26T00:31:42.388Z,96036.08
2019-06-26T00:34:09.759Z,96044.92
2019-06-26T00:36:37.146Z,96044.72
2019-06-26T00:39:06.662Z,96049.08
2019-06-26T00:41:34.023Z,96047.88
2019-06-26T00:44:01.455Z,96047.36
2019-06-26T00:46:28.837Z,96049.39
2019-06-26T00:48:56.197Z,96052.06
2019-06-26T00:51:23.707Z,96051.74
2019-06-26T00:53:51.106Z,96048.08
2019-06-26T00:56:18.528Z,96056.09
2019-06-26T00:58:45.946Z,96054.32
2019-06-26T01:01:13.471Z,96060.92
2019-06-26T01:03:40.866Z,96061.55
2019-06-26T01:06:10.578Z,96064.38
2019-06-26T01:08:38.133Z,96068.02
2019-06-26T01:11:05.668Z,96067.55
2019-06-26T01:13:33.088Z,96063.00
2019-06-26T01:16:00.587Z,96066.00
2019-06-26T01:18:27.960Z,96065.22
2019-06-26T01:20:55.391Z,96064.73
2019-06-26T01:23:22.845Z,96062.73
2019-06-26T01:25:50.248Z,96070.21
2019-06-26T01:28:17.666Z,96066.99
2019-06-26T01:30:45.220Z,96069.01
2019-06-26T01:33:12.587Z,96075.10
2019-06-26T01:35:40.004Z,96066.42
2019-06-26T01:38:07.478Z,96066.17
2019-06-26T01:40:34.870Z,96067.19
2019-06-26T01:43:02.412Z,96063.80
2019-06-26T01:45:29.991Z,96062.66
2019-06-26T01:47:57.418Z,96069.19
2019-06-26T01:50:24.812Z,96067.85
2019-06-26T01:52:52.450Z,96066.38
2019-06-26T01:55:19.927Z,96066.28
2019-06-26T01:57:47.316Z,96064.62
2019-06-26T02:00:16.452Z,96066.22
2019-06-26T02:02:43.856Z,96066.63
2019-06-26T02:05:11.389Z,96074.52
2019-06-26T02:07:38.987Z,96068.42
2019-06-26T02:10:07.672Z,96062.08
2019-06-26T02:12:35.624Z,96070.23
2019-06-26T02:15:03.474Z,96074.73
2019-06-26T02:17:30.953Z,96076.89
2019-06-26T02:19:58.363Z,96070.72
2019-06-26T02:22:25.814Z,96072.90
2019-06-26T02:24:53.307Z,96074.48
2019-06-26T02:27:20.805Z,96079.94
2019-06-26T02:29:48.311Z,96086.17
2019-06-26T02:32:15.718Z,96081.30
2019-06-26T02:34:43.109Z,96076.68
2019-06-26T02:37:10.589Z,96076.38
2019-06-26T02:39:37.967Z,96075.87
2019-06-26T02:42:05.395Z,96074.63
2019-06-26T02:44:51.384Z,96079.55
2019-06-26T02:47:18.908Z,96084.37
2019-06-26T02:49:31.470Z,96087.67
2019-06-26T02:51:59.013Z,96082.84
2019-06-26T02:54:26.457Z,96088.36
2019-06-26T02:56:53.891Z,96079.70
2019-06-26T02:59:21.421Z,96075.80
2019-06-26T03:01:48.904Z,96085.52
2019-06-26T03:04:16.315Z,96086.22
2019-06-26T03:06:43.747Z,96093.42
2019-06-26T03:09:11.165Z,96093.56
2019-06-26T03:11:38.551Z,96090.02
2019-06-26T03:14:05.968Z,96086.03
2019-06-26T03:16:33.393Z,96091.92
2019-06-26T03:19:00.876Z,96093.80
2019-06-26T03:21:28.307Z,96096.45
2019-06-26T03:23:55.724Z,96102.84
2019-06-26T03:26:23.126Z,96100.05
2019-06-26T03:28:50.715Z,96101.27
2019-06-26T03:31:18.416Z,96099.94
2019-06-26T03:33:45.837Z,96092.66
2019-06-26T03:36:13.238Z,96100.98
2019-06-26T03:38:40.625Z,96103.88
2019-06-26T03:41:07.987Z,96102.34
2019-06-26T03:43:35.838Z,96104.63
2019-06-26T03:46:03.589Z,96107.34
2019-06-26T03:48:30.991Z,96113.86
2019-06-26T03:50:58.406Z,96115.71
2019-06-26T03:53:25.795Z,96121.22
2019-06-26T03:55:53.209Z,96117.99
2019-06-26T03:58:20.671Z,96112.78
2019-06-26T04:00:48.180Z,96123.70
2019-06-26T04:03:15.727Z,96127.89
2019-06-26T04:05:43.185Z,96120.41
2019-06-26T04:08:10.680Z,96126.08
2019-06-26T04:10:38.105Z,96131.23
2019-06-26T04:13:05.579Z,96130.59
2019-06-26T04:15:42.280Z,96130.87
2019-06-26T04:18:02.347Z,96129.83
2019-06-26T04:20:29.771Z,96133.16
2019-06-26T04:22:57.253Z,96123.58
2019-06-26T04:25:24.683Z,96130.80
2019-06-26T04:27:52.173Z,96137.95
2019-06-26T04:30:20.080Z,96137.17
2019-06-26T04:32:47.526Z,96141.34
2019-06-26T04:35:14.965Z,96146.23
2019-06-26T04:37:42.367Z,96138.84
2019-06-26T04:40:09.966Z,96141.98
2019-06-26T04:42:37.406Z,96148.03
2019-06-26T04:45:05.009Z,96144.87
2019-06-26T04:47:32.569Z,96148.35
2019-06-26T04:49:59.993Z,96151.03
2019-06-26T04:52:27.408Z,96151.11
2019-06-26T04:54:54.822Z,96152.77
2019-06-26T04:57:22.333Z,96154.71
2019-06-26T04:59:49.857Z,96160.66
2019-06-26T05:02:17.336Z,96146.24
2019-06-26T05:04:44.841Z,96160.54
2019-06-26T05:07:12.283Z,96151.98
2019-06-26T05:09:39.740Z,96143.91
2019-06-26T05:12:07.211Z,96150.41
2019-06-26T05:14:34.643Z,96146.61
2019-06-26T05:17:02.056Z,96142.56
2019-06-26T05:19:29.527Z,96136.09
2019-06-26T05:21:56.946Z,96143.69
2019-06-26T05:24:24.414Z,96145.06
2019-06-26T05:26:52.011Z,96149.87
2019-06-26T05:29:19.465Z,96148.03
2019-06-26T05:31:47.096Z,96147.57
2019-06-26T05:34:14.548Z,96148.72
2019-06-26T05:36:41.940Z,96144.61
2019-06-26T05:39:09.489Z,96153.09
2019-06-26T05:41:36.965Z,96150.06
2019-06-26T05:44:04.698Z,96152.80
2019-06-26T05:46:32.125Z,96149.78
2019-06-26T05:48:59.585Z,96154.95
2019-06-26T05:51:26.963Z,96164.62
2019-06-26T05:53:54.346Z,96153.95
2019-06-26T05:56:21.856Z,96162.81
2019-06-26T05:58:49.334Z,96150.61
2019-06-26T06:01:16.787Z,96156.12
2019-06-26T06:03:44.230Z,96166.44
2019-06-26T06:06:11.746Z,96162.09
2019-06-26T06:08:39.155Z,96159.93
2019-06-26T06:11:06.642Z,96158.23
2019-06-26T06:13:34.137Z,96157.05
2019-06-26T06:16:01.687Z,96156.09
2019-06-26T06:18:29.149Z,96151.33
2019-06-26T06:20:56.578Z,96158.64
2019-06-26T06:23:23.966Z,96145.23
2019-06-26T06:25:51.425Z,96156.44
2019-06-26T06:28:18.860Z,96160.30
2019-06-26T06:30:46.329Z,96150.78
2019-06-26T06:33:14.005Z,96144.92
2019-06-26T06:35:41.432Z,96143.32
2019-06-26T06:38:08.787Z,96144.70
2019-06-26T06:40:36.233Z,96151.91
2019-06-26T06:43:03.695Z,96153.81
2019-06-26T06:45:31.269Z,96148.98
2019-06-26T06:47:58.728Z,96144.66
2019-06-26T06:50:26.268Z,96148.20
2019-06-26T06:52:53.727Z,96144.55
2019-06-26T06:55:21.172Z,96146.05
2019-06-26T06:57:48.590Z,96139.45
2019-06-26T07:00:16.917Z,96144.02
2019-06-26T07:02:44.475Z,96138.20
2019-06-26T07:05:11.937Z,96133.50
2019-06-26T07:07:39.373Z,96140.27
2019-06-26T07:10:07.223Z,96142.70
2019-06-26T07:12:34.686Z,96146.56
2019-06-26T07:15:02.259Z,96140.36
2019-06-26T07:17:29.752Z,96140.45
2019-06-26T07:19:57.152Z,96138.14
2019-06-26T07:22:24.600Z,96130.78
2019-06-26T07:24:52.053Z,96128.54
2019-06-26T07:27:19.459Z,96131.45
2019-06-26T07:29:46.847Z,96126.58
2019-06-26T07:32:14.307Z,96118.95
2019-06-26T07:34:41.751Z,96116.72
2019-06-26T07:37:09.221Z,96114.70
2019-06-26T07:39:36.865Z,96111.14
2019-06-26T07:42:04.247Z,96109.42
2019-06-26T07:44:31.713Z,96109.94
2019-06-26T07:46:59.201Z,96103.44
2019-06-26T07:49:26.699Z,96103.47
2019-06-26T07:51:54.164Z,96103.97
2019-06-26T07:54:21.613Z,96101.73
2019-06-26T07:56:49.045Z,96095.28
2019-06-26T07:59:16.482Z,96099.83
2019-06-26T08:01:43.934Z,96102.43
2019-06-26T08:04:11.369Z,96095.56
2019-06-26T08:06:38.824Z,96092.89
2019-06-26T08:09:06.466Z,96094.67
2019-06-26T08:11:34.003Z,96090.41
2019-06-26T08:14:01.527Z,96085.44
2019-06-26T08:16:29.027Z,96085.03
2019-06-26T08:18:56.422Z,96081.92
2019-06-26T08:21:23.871Z,96080.48
2019-06-26T08:23:51.439Z,96074.47
2019-06-26T08:26:19.147Z,96066.84
2019-06-26T08:28:46.556Z,96071.14
2019-06-26T08:31:14.055Z,96066.80
2019-06-26T08:33:41.524Z,96058.41
2019-06-26T08:36:08.967Z,96057.97
2019-06-26T08:38:36.466Z,96059.69
2019-06-26T08:41:03.963Z,96061.25
2019-06-26T08:43:31.699Z,96053.66
2019-06-26T08:45:59.331Z,96050.73
2019-06-26T08:48:39.021Z,96061.96
2019-06-26T08:50:56.066Z,96048.68
2019-06-26T08:53:23.506Z,96043.36
2019-06-26T08:55:50.954Z,96043.55
2019-06-26T08:58:18.527Z,96041.44
2019-06-26T09:00:46.013Z,96047.28
2019-06-26T09:03:13.433Z,96045.94
2019-06-26T09:05:47.866Z,96047.05
2019-06-26T09:08:10.507Z,96041.83
2019-06-26T09:10:38.111Z,96033.72
2019-06-26T09:13:05.573Z,96043.64
2019-06-26T09:15:33.107Z,96032.77
2019-06-26T09:18:00.583Z,96037.30
2019-06-26T09:20:37.889Z,96033.53
2019-06-26T09:23:05.613Z,96026.48
2019-06-26T09:25:33.030Z,96023.63
2019-06-26T09:28:00.510Z,96024.91
2019-06-26T09:30:28.153Z,96018.47
2019-06-26T09:32:55.601Z,96018.52
2019-06-26T09:35:23.205Z,96016.87
2019-06-26T09:37:51.270Z,96015.50
2019-06-26T09:40:18.931Z,96013.88
2019-06-26T09:42:46.423Z,96011.88
2019-06-26T09:45:14.010Z,96006.27
2019-06-26T09:47:41.749Z,96004.39
2019-06-26T09:50:09.691Z,96004.78
2019-06-26T09:52:37.154Z,96006.34
2019-06-26T09:55:04.885Z,95999.50
2019-06-26T09:57:32.332Z,96002.25
2019-06-26T09:59:59.773Z,95999.30
2019-06-26T10:02:27.195Z,95995.20
2019-06-26T10:04:54.749Z,95994.05
2019-06-26T10:07:22.233Z,95992.64
2019-06-26T10:09:49.690Z,95997.66
2019-06-26T10:12:17.269Z,95993.52
2019-06-26T10:14:47.900Z,95990.59
2019-06-26T10:17:14.267Z,95984.58
2019-06-26T10:19:41.724Z,95986.00
2019-06-26T10:22:09.234Z,95998.27
2019-06-26T10:24:36.715Z,95990.36
2019-06-26T10:27:04.450Z,95982.22
2019-06-26T10:29:32.100Z,95982.00
2019-06-26T10:31:59.572Z,95980.22
2019-06-26T10:34:27.073Z,95982.80
2019-06-26T10:36:54.674Z,95981.80
2019-06-26T10:39:22.089Z,95982.81
2019-06-26T10:41:49.593Z,95976.22
2019-06-26T10:44:17.021Z,95974.69
2019-06-26T10:46:44.472Z,95976.69
2019-06-26T10:49:25.866Z,95972.55
2019-06-26T10:51:41.283Z,95969.36
2019-06-26T10:54:08.716Z,95963.70
2019-06-26T10:56:36.185Z,95961.48
2019-06-26T10:59:03.751Z,95964.74
2019-06-26T11:01:31.249Z,95961.97
2019-06-26T11:03:58.689Z,95956.94
2019-06-26T11:06:26.101Z,95951.96
2019-06-26T11:08:53.651Z,95944.20
2019-06-26T11:11:21.257Z,95941.45
2019-06-26T11:13:48.799Z,95947.08
2019-06-26T11:16:16.248Z,95944.05
2019-06-26T11:18:43.816Z,95941.77
2019-06-26T11:21:11.264Z,95941.89
2019-06-26T11:23:38.694Z,95929.46
2019-06-26T11:26:06.195Z,95929.39
2019-06-26T11:28:33.621Z,95927.15
2019-06-26T11:31:24.047Z,95933.21
2019-06-26T11:33:51.513Z,95921.02
2019-06-26T11:36:18.989Z,95921.77
2019-06-26T11:38:46.530Z,95920.99
2019-06-26T11:41:14.002Z,95913.95
2019-06-26T11:43:41.485Z,95917.64
2019-06-26T11:46:09.099Z,95912.30
2019-06-26T11:48:36.540Z,95907.60
2019-06-26T11:51:04.101Z,95906.97
2019-06-26T11:53:31.977Z,95908.87
2019-06-26T11:55:59.531Z,95900.69
2019-06-26T11:58:27.058Z,95903.14
2019-06-26T12:00:54.534Z,95894.42
2019-06-26T12:03:21.961Z,95901.24
2019-06-26T12:05:49.478Z,95902.19
2019-06-26T12:08:18.497Z,95901.05
2019-06-26T12:10:46.116Z,95894.48
2019-06-26T12:13:13.726Z,95898.77
2019-06-26T12:15:41.281Z,95897.78
2019-06-26T12:18:09.372Z,95898.71
2019-06-26T12:20:36.764Z,95895.26
2019-06-26T12:23:04.353Z,95895.92
2019-06-26T12:25:31.810Z,95893.34
2019-06-26T12:27:59.388Z,95894.71
2019-06-26T12:30:26.949Z,95894.45
2019-06-26T12:33:02.753Z,95895.38
2019-06-26T12:35:23.748Z,95894.81
2019-06-26T12:37:51.431Z,95889.48
2019-06-26T12:40:19.265Z,95886.30
2019-06-26T12:42:46.745Z,95889.64
2019-06-26T12:45:14.485Z,95886.22
2019-06-26T12:47:41.934Z,95880.59
2019-06-26T12:50:11.239Z,95884.09
2019-06-26T12:52:38.728Z,95883.22
2019-06-26T12:55:06.439Z,95875.31
2019-06-26T12:57:33.986Z,95883.25
2019-06-26T13:00:02.080Z,95883.50
2019-06-26T13:02:29.967Z,95878.03
2019-06-26T13:04:57.438Z,95886.61
2019-06-26T13:07:24.931Z,95874.94
2019-06-26T13:09:52.355Z,95880.06
2019-06-26T13:12:20.021Z,95872.83
2019-06-26T13:14:47.514Z,95880.19
2019-06-26T13:17:15.150Z,95871.66
2019-06-26T13:19:42.600Z,95869.55
2019-06-26T13:22:11.170Z,95869.23
2019-06-26T13:24:38.705Z,95860.27
2019-06-26T13:27:06.108Z,95866.01
2019-06-26T13:29:34.383Z,95869.55
2019-06-26T13:32:02.069Z,95861.67
2019-06-26T13:34:29.600Z,95870.22
2019-06-26T13:36:57.120Z,95862.84
2019-06-26T13:39:24.726Z,95871.28
2019-06-26T13:41:52.261Z,95863.66
2019-06-26T13:44:19.764Z,95856.81
2019-06-26T13:46:47.482Z,95855.73
2019-06-26T13:49:16.623Z,95862.28
2019-06-26T13:51:44.471Z,95863.39
2019-06-26T13:54:12.069Z,95850.55
2019-06-26T13:56:39.561Z,95854.36
2019-06-26T13:59:07.679Z,95849.71
2019-06-26T14:01:35.577Z,95842.63
2019-06-26T14:04:03.046Z,95850.27
2019-06-26T14:06:30.672Z,95850.27
2019-06-26T14:08:58.198Z,95846.17
2019-06-26T14:11:25.644Z,95839.59
2019-06-26T14:13:53.240Z,95848.86
2019-06-26T14:16:20.790Z,95844.23
2019-06-26T14:18:48.287Z,95846.13
2019-06-26T14:21:25.657Z,95845.92
2019-06-26T14:23:45.506Z,95846.95
2019-06-26T14:26:12.979Z,95845.90
2019-06-26T14:28:40.550Z,95845.59
2019-06-26T14:31:08.170Z,95838.49
2019-06-26T14:33:35.763Z,95841.22
2019-06-26T14:36:03.382Z,95838.45
2019-06-26T14:38:30.946Z,95831.34
2019-06-26T14:40:58.530Z,95837.06
2019-06-26T14:43:26.114Z,95828.86
2019-06-26T14:45:53.570Z,95831.63
2019-06-26T14:48:21.036Z,95828.38
2019-06-26T14:50:48.596Z,95830.02
2019-06-26T14:53:16.092Z,95826.22
2019-06-26T14:55:43.634Z,95825.05
2019-06-26T14:58:11.138Z,95822.38
2019-06-26T15:00:38.578Z,95822.69
2019-06-26T15:03:05.982Z,95821.84
2019-06-26T15:05:33.493Z,95819.92
2019-06-26T15:08:00.988Z,95809.46
2019-06-26T15:10:28.440Z,95812.47
2019-06-26T15:12:55.969Z,95814.70
2019-06-26T15:15:23.596Z,95806.41
2019-06-26T15:17:51.093Z,95808.63
2019-06-26T15:20:18.796Z,95814.17
2019-06-26T15:22:46.391Z,95808.70
2019-06-26T15:25:15.557Z,95811.08
2019-06-26T15:27:43.091Z,95799.08
2019-06-26T15:30:11.155Z,95800.48
2019-06-26T15:32:39.232Z,95804.80
2019-06-26T15:35:07.449Z,95803.41
2019-06-26T15:40:32.126Z,95804.11
2019-06-26T15:42:59.738Z,95795.67
2019-06-26T15:45:27.413Z,95795.98
2019-06-26T15:47:55.159Z,95790.91
2019-06-26T15:50:22.793Z,95790.38
2019-06-26T15:52:50.448Z,95791.73
2019-06-26T15:55:18.021Z,95788.08
2019-06-26T15:57:45.622Z,95793.32
2019-06-26T16:00:13.438Z,95798.62
2019-06-26T16:02:41.098Z,95787.39
2019-06-26T16:05:09.620Z,95796.13
2019-06-26T16:07:37.218Z,95795.84
2019-06-26T16:10:05.187Z,95787.10
2019-06-26T16:12:32.727Z,95795.28
2019-06-26T16:15:00.287Z,95792.86
2019-06-26T16:17:43.890Z,95797.50
2019-06-26T16:20:11.525Z,95793.41
2019-06-26T16:22:39.137Z,95791.94
2019-06-26T16:25:06.918Z,95794.48
2019-06-26T16:27:34.440Z,95793.94
2019-06-26T16:30:02.378Z,95794.46
2019-06-26T16:32:30.254Z,95799.39
2019-06-26T16:34:57.888Z,95793.96
2019-06-26T16:37:25.360Z,95795.02
2019-06-26T16:39:53.122Z,95808.83
2019-06-26T16:42:20.719Z,95798.55
2019-06-26T16:44:48.271Z,95803.94
2019-06-26T16:47:15.948Z,95799.41
2019-06-26T16:49:43.464Z,95804.34
2019-06-26T16:52:11.037Z,95805.71
2019-06-26T16:54:38.574Z,95797.78
2019-06-26T16:57:06.054Z,95803.30
2019-06-26T16:59:33.668Z,95803.59
2019-06-26T17:02:01.184Z,95798.30
2019-06-26T17:04:28.667Z,95804.85
2019-06-26T17:06:56.134Z,95804.69
2019-06-26T17:09:23.707Z,95802.69
2019-06-26T17:11:51.245Z,95806.47
2019-06-26T17:14:18.702Z,95817.59
2019-06-26T17:16:46.393Z,95817.67
2019-06-26T17:19:13.855Z,95809.80
2019-06-26T17:21:41.403Z,95811.98
2019-06-26T17:24:09.953Z,95814.73
2019-06-26T17:26:37.364Z,95823.05
2019-06-26T17:29:04.808Z,95819.03
2019-06-26T17:31:32.338Z,95816.95
2019-06-26T17:33:59.861Z,95820.84
2019-06-26T17:36:28.893Z,95820.12
2019-06-26T17:38:56.732Z,95822.70
2019-06-26T17:41:24.306Z,95816.63
2019-06-26T17:43:51.756Z,95823.31
2019-06-26T17:46:19.309Z,95822.42
2019-06-26T17:48:46.766Z,95819.13
2019-06-26T17:51:14.270Z,95820.03
2019-06-26T17:53:41.806Z,95828.39
2019-06-26T17:56:09.292Z,95830.02
2019-06-26T17:58:36.760Z,95829.70
2019-06-26T18:01:04.247Z,95833.91
2019-06-26T18:03:32.113Z,95831.61
2019-06-26T18:06:00.235Z,95834.53
2019-06-26T18:08:28.282Z,95835.58
2019-06-26T18:10:56.363Z,95833.38
2019-06-26T18:13:23.858Z,95833.47
2019-06-26T18:15:51.373Z,95839.25
2019-06-26T18:18:18.850Z,95840.43
2019-06-26T18:20:46.403Z,95836.05
2019-06-26T18:23:13.873Z,95841.69
2019-06-26T18:25:42.239Z,95837.95
2019-06-26T18:28:09.697Z,95840.70
2019-06-26T18:30:37.190Z,95843.83
2019-06-26T18:33:04.764Z,95838.66
2019-06-26T18:35:32.307Z,95843.48
2019-06-26T18:37:59.766Z,95851.01
2019-06-26T18:40:27.247Z,95852.00
2019-06-26T18:42:54.651Z,95854.89
2019-06-26T18:45:22.077Z,95852.19
2019-06-26T18:47:49.528Z,95852.45
2019-06-26T18:50:16.994Z,95854.47
2019-06-26T18:52:44.493Z,95851.25
2019-06-26T18:55:12.048Z,95858.72
2019-06-26T18:57:39.527Z,95861.95
2019-06-26T19:00:07.401Z,95872.53
2019-06-26T19:02:34.810Z,95862.13
2019-06-26T19:05:02.266Z,95871.12
2019-06-26T19:07:30.012Z,95876.95
2019-06-26T19:10:01.496Z,95867.30
2019-06-26T19:12:29.018Z,95870.24
2019-06-26T19:14:56.568Z,95878.53
2019-06-26T19:17:24.193Z,95873.18
2019-06-26T19:19:51.679Z,95876.52
2019-06-26T19:22:19.198Z,95875.47
2019-06-26T19:24:46.844Z,95885.13
2019-06-26T19:27:14.502Z,95883.58
2019-06-26T19:29:42.069Z,95890.75
2019-06-26T19:32:09.443Z,95895.31
2019-06-26T19:34:37.057Z,95895.91
2019-06-26T19:37:04.560Z,95890.16
2019-06-26T19:39:32.151Z,95903.58
2019-06-26T19:41:59.731Z,95911.89
2019-06-26T19:44:27.323Z,95906.13
2019-06-26T19:46:54.809Z,95912.88
2019-06-26T19:49:22.461Z,95912.34
2019-06-26T19:51:50.116Z,95916.30
2019-06-26T19:54:26.892Z,95915.27
2019-06-26T19:56:52.811Z,95928.91
2019-06-26T19:59:20.277Z,95923.52
2019-06-26T20:01:51.258Z,95927.56
2019-06-26T20:04:19.482Z,95934.91
2019-06-26T20:06:47.144Z,95933.38
2019-06-26T20:09:14.873Z,95937.95
2019-06-26T20:11:42.700Z,95940.98
2019-06-26T20:14:10.380Z,95940.70
2019-06-26T20:16:37.886Z,95937.34
2019-06-26T20:19:05.577Z,95948.66
2019-06-26T20:21:33.345Z,95948.47
2019-06-26T20:24:01.127Z,95944.09
2019-06-26T20:26:31.332Z,95948.69
2019-06-26T20:29:02.614Z,95955.73
2019-06-26T20:31:32.076Z,95953.48
2019-06-26T20:33:59.763Z,95949.28
2019-06-26T20:36:27.246Z,95951.22
2019-06-26T20:38:54.777Z,95964.85
2019-06-26T20:41:24.490Z,95960.27
2019-06-26T20:43:52.049Z,95964.44
2019-06-26T20:46:19.546Z,95969.59
2019-06-26T20:48:47.135Z,95975.97
2019-06-26T20:51:14.730Z,95976.08
2019-06-26T20:53:42.207Z,95978.17
2019-06-26T20:56:09.654Z,95975.56
2019-06-26T20:58:37.150Z,95972.89
2019-06-26T21:01:04.772Z,95980.69
2019-06-26T21:03:32.264Z,95976.93
2019-06-26T21:05:59.834Z,95974.33
2019-06-26T21:08:29.553Z,95987.66
2019-06-26T21:10:56.665Z,95983.38
2019-06-26T21:13:24.180Z,95984.25
2019-06-26T21:15:53.023Z,95988.76
2019-06-26T21:18:20.687Z,95995.66
2019-06-26T21:20:48.209Z,95985.45
2019-06-26T21:23:18.815Z,96004.55
2019-06-26T21:25:45.058Z,96002.23
2019-06-26T21:28:12.566Z,96001.28
2019-06-26T21:30:39.986Z,96013.28
2019-06-26T21:33:07.420Z,96008.17
2019-06-26T21:35:34.870Z,96008.17
2019-06-26T21:38:02.303Z,96016.13
2019-06-26T21:40:29.722Z,96018.23
2019-06-26T21:42:57.455Z,96019.39
2019-06-26T21:45:24.874Z,96014.89
2019-06-26T21:47:52.465Z,96014.89
2019-06-26T21:50:20.359Z,96025.97
2019-06-26T21:52:47.917Z,96036.77
2019-06-26T21:55:15.327Z,96033.03
2019-06-26T21:57:42.889Z,96034.12
2019-06-26T22:00:11.194Z,96036.61
2019-06-26T22:02:38.711Z,96031.56
2019-06-26T22:05:06.747Z,96040.73
2019-06-26T22:07:34.189Z,96036.63
2019-06-26T22:10:01.789Z,96043.75
2019-06-26T22:12:29.265Z,96044.06
2019-06-26T22:14:56.805Z,96047.71
2019-06-26T22:17:24.238Z,96043.59
2019-06-26T22:19:51.828Z,96042.34
2019-06-26T22:22:19.327Z,96042.03
2019-06-26T22:24:46.735Z,96050.15
2019-06-26T22:27:14.210Z,96053.00
2019-06-26T22:29:41.613Z,96056.67
2019-06-26T22:32:09.025Z,96049.97
2019-06-26T22:34:36.471Z,96042.38
2019-06-26T22:37:04.007Z,96040.50
2019-06-26T22:39:31.402Z,96041.87
2019-06-26T22:41:58.878Z,96039.42
2019-06-26T22:44:26.344Z,96039.71
2019-06-26T22:46:53.745Z,96039.81
2019-06-26T22:49:21.168Z,96037.40
2019-06-26T22:51:48.654Z,96041.75
2019-06-26T22:54:19.573Z,96038.00
2019-06-26T22:56:45.489Z,96036.77
2019-06-26T22:59:12.894Z,96048.77
2019-06-26T23:01:40.517Z,96049.34
2019-06-26T23:04:08.169Z,96045.19
2019-06-26T23:06:37.540Z,96046.85
2019-06-26T23:09:05.730Z,96049.51
2019-06-26T23:11:33.231Z,96052.40
2019-06-26T23:14:00.809Z,96050.25
2019-06-26T23:16:28.289Z,96048.77
2019-06-26T23:18:55.767Z,96047.30
2019-06-26T23:21:23.213Z,96045.36
2019-06-26T23:23:50.728Z,96039.57
2019-06-26T23:26:23.950Z,96044.92
2019-06-26T23:28:47.571Z,96054.98
2019-06-26T23:31:15.130Z,96050.06
2019-06-26T23:33:42.588Z,96052.81
2019-06-26T23:36:10.160Z,96049.42
2019-06-26T23:38:37.628Z,96044.77
2019-06-26T23:41:05.115Z,96046.83
2019-06-26T23:43:32.654Z,96047.75
2019-06-26T23:46:00.086Z,96050.77
2019-06-26T23:48:27.575Z,96044.91
2019-06-26T23:50:55.131Z,96050.91
2019-06-26T23:53:22.568Z,96046.09
2019-06-26T23:55:50.073Z,96050.90
2019-06-26T23:58:17.488Z,96046.19
